createdAt,value
2022-08-25T00:02:00.787Z,15.70
2022-08-25T00:04:30.300Z,15.70
2022-08-25T00:07:02.680Z,15.70
2022-08-25T00:09:31.373Z,15.70
2022-08-25T00:11:58.945Z,15.80
2022-08-25T00:14:31.076Z,15.70
2022-08-25T00:16:58.797Z,15.70
2022-08-25T00:19:29.893Z,15.60
2022-08-25T00:21:57.075Z,15.70
2022-08-25T00:24:24.560Z,15.70
2022-08-25T00:26:55.022Z,15.60
2022-08-25T00:29:23.289Z,15.60
2022-08-25T00:31:50.119Z,15.50
2022-08-25T00:34:21.471Z,15.50
2022-08-25T00:36:50.869Z,15.40
2022-08-25T00:39:21.064Z,15.40
2022-08-25T00:41:49.778Z,15.40
2022-08-25T00:44:18.874Z,15.40
2022-08-25T00:46:58.333Z,15.40
2022-08-25T00:49:33.898Z,15.40
2022-08-25T00:52:09.127Z,15.40
2022-08-25T00:54:46.093Z,15.40
2022-08-25T00:57:16.888Z,15.30
2022-08-25T00:59:44.463Z,15.30
2022-08-25T01:02:15.256Z,15.20
2022-08-25T01:04:48.955Z,15.20
2022-08-25T01:07:18.717Z,15.10
2022-08-25T01:09:48.098Z,15.10
2022-08-25T01:12:15.119Z,15.00
2022-08-25T01:14:46.021Z,15.00
2022-08-25T01:17:14.421Z,15.00
2022-08-25T01:19:42.015Z,15.00
2022-08-25T01:22:10.565Z,15.00
2022-08-25T01:24:57.034Z,15.10
2022-08-25T01:27:23.851Z,15.00
2022-08-25T01:29:50.735Z,15.00
2022-08-25T01:32:17.565Z,15.00
2022-08-25T01:34:45.521Z,15.00
2022-08-25T01:37:14.640Z,14.90
2022-08-25T01:39:42.720Z,14.80
2022-08-25T01:42:17.923Z,14.80
2022-08-25T01:44:47.180Z,14.90
2022-08-25T01:47:14.705Z,14.80
2022-08-25T01:49:41.570Z,14.90
2022-08-25T01:52:21.323Z,14.90
2022-08-25T01:54:49.015Z,14.90
2022-08-25T01:57:16.024Z,14.90
2022-08-25T01:59:42.920Z,14.80
2022-08-25T02:02:10.591Z,14.80
2022-08-25T02:04:37.839Z,14.80
2022-08-25T02:07:06.715Z,14.80
2022-08-25T02:09:34.396Z,14.70
2022-08-25T02:12:01.245Z,14.70
2022-08-25T02:14:28.639Z,14.70
2022-08-25T02:16:56.115Z,14.70
2022-08-25T02:19:25.877Z,14.70
2022-08-25T02:21:53.162Z,14.70
2022-08-25T02:24:20.154Z,14.70
2022-08-25T02:26:47.694Z,14.60
2022-08-25T02:29:15.424Z,14.60
2022-08-25T02:31:42.639Z,14.50
2022-08-25T02:34:10.391Z,14.50
2022-08-25T02:36:38.482Z,14.50
2022-08-25T02:39:07.574Z,14.40
2022-08-25T02:41:34.977Z,14.40
2022-08-25T02:44:03.735Z,14.50
2022-08-25T02:46:31.103Z,14.40
2022-08-25T02:48:58.325Z,14.40
2022-08-25T02:51:29.955Z,14.40
2022-08-25T02:53:58.069Z,14.30
2022-08-25T02:56:25.830Z,14.20
2022-08-25T02:58:52.848Z,14.20
2022-08-25T03:01:20.241Z,14.20
2022-08-25T03:03:49.645Z,14.10
2022-08-25T03:06:20.687Z,14.00
2022-08-25T03:08:47.516Z,14.00
2022-08-25T03:11:14.440Z,13.90
2022-08-25T03:13:41.744Z,13.80
2022-08-25T03:16:11.172Z,13.90
2022-08-25T03:18:42.016Z,13.90
2022-08-25T03:21:11.540Z,13.80
2022-08-25T03:23:39.889Z,13.80
2022-08-25T03:26:25.927Z,13.90
2022-08-25T03:28:55.686Z,13.90
2022-08-25T03:31:24.122Z,14.00
2022-08-25T03:33:50.952Z,13.90
2022-08-25T03:36:17.834Z,13.80
2022-08-25T03:38:45.009Z,13.80
2022-08-25T03:41:17.826Z,13.70
2022-08-25T03:43:44.788Z,13.70
2022-08-25T03:46:23.696Z,13.70
2022-08-25T03:48:52.735Z,13.70
2022-08-25T03:51:23.708Z,13.70
2022-08-25T03:53:51.221Z,13.60
2022-08-25T03:56:18.972Z,13.50
2022-08-25T03:58:47.795Z,13.40
2022-08-25T04:01:16.051Z,13.50
2022-08-25T04:03:45.705Z,13.50
2022-08-25T04:06:13.857Z,13.40
2022-08-25T04:08:40.758Z,13.40
2022-08-25T04:11:10.390Z,13.40
2022-08-25T04:13:37.610Z,13.30
2022-08-25T04:16:12.825Z,13.30
2022-08-25T04:18:40.660Z,13.30
2022-08-25T04:21:09.839Z,13.30
2022-08-25T04:23:41.246Z,13.30
2022-08-25T04:26:14.228Z,13.30
2022-08-25T04:28:41.647Z,13.50
2022-08-25T04:31:10.847Z,13.50
2022-08-25T04:33:38.681Z,13.50
2022-08-25T04:36:11.897Z,13.50
2022-08-25T04:38:40.767Z,13.60
2022-08-25T04:41:09.550Z,13.60
2022-08-25T04:43:37.861Z,13.60
2022-08-25T04:46:20.003Z,13.60
2022-08-25T04:48:51.803Z,13.60
2022-08-25T04:51:23.377Z,13.60
2022-08-25T04:53:51.121Z,13.60
2022-08-25T04:56:21.137Z,13.60
2022-08-25T04:58:48.008Z,13.60
2022-08-25T05:01:18.098Z,13.70
2022-08-25T05:03:46.884Z,13.70
2022-08-25T05:06:16.236Z,13.90
2022-08-25T05:08:45.957Z,13.90
2022-08-25T05:11:15.018Z,14.00
2022-08-25T05:13:44.223Z,14.10
2022-08-25T05:16:17.631Z,14.20
2022-08-25T05:18:45.177Z,14.30
2022-08-25T05:21:15.767Z,14.40
2022-08-25T05:23:43.268Z,14.50
2022-08-25T05:26:17.724Z,14.60
2022-08-25T05:28:47.379Z,14.90
2022-08-25T05:31:14.954Z,16.10
2022-08-25T05:33:42.610Z,18.40
2022-08-25T05:36:11.887Z,20.50
2022-08-25T05:38:41.013Z,22.30
2022-08-25T05:41:11.422Z,23.30
2022-08-25T05:43:40.419Z,23.90
2022-08-25T05:46:08.554Z,24.40
2022-08-25T05:48:36.127Z,24.50
2022-08-25T05:51:05.713Z,25.60
2022-08-25T05:53:33.729Z,26.30
2022-08-25T05:56:01.464Z,26.90
2022-08-25T05:58:30.075Z,27.70
2022-08-25T06:00:58.152Z,27.50
2022-08-25T06:03:25.105Z,27.30
2022-08-25T06:05:51.949Z,27.70
2022-08-25T06:08:19.497Z,28.60
2022-08-25T06:10:51.624Z,28.10
2022-08-25T06:13:18.566Z,28.70
2022-08-25T06:16:00.950Z,29.10
2022-08-25T06:18:28.113Z,29.40
2022-08-25T06:20:54.894Z,29.40
2022-08-25T06:23:21.782Z,29.30
2022-08-25T06:25:53.555Z,29.30
2022-08-25T06:28:21.044Z,29.70
2022-08-25T06:30:48.419Z,29.50
2022-08-25T06:33:15.601Z,29.30
2022-08-25T06:35:43.783Z,29.20
2022-08-25T06:38:11.246Z,28.90
2022-08-25T06:40:38.739Z,29.20
2022-08-25T06:43:08.860Z,29.40
2022-08-25T06:45:35.904Z,29.40
2022-08-25T06:48:02.817Z,29.80
2022-08-25T06:50:30.030Z,30.20
2022-08-25T06:52:57.032Z,30.50
2022-08-25T06:55:23.943Z,30.30
2022-08-25T06:57:53.982Z,30.10
2022-08-25T07:00:23.354Z,30.50
2022-08-25T07:02:59.450Z,30.30
2022-08-25T07:05:40.934Z,30.30
2022-08-25T07:08:12.008Z,30.20
2022-08-25T07:10:39.130Z,30.10
2022-08-25T07:13:06.000Z,29.50
2022-08-25T07:15:32.862Z,29.50
2022-08-25T07:17:59.640Z,30.00
2022-08-25T07:22:58.592Z,30.20
2022-08-25T07:25:25.542Z,30.30
2022-08-25T07:27:54.822Z,30.80
2022-08-25T07:30:25.301Z,30.90
2022-08-25T07:32:55.128Z,30.50
2022-08-25T07:35:26.370Z,31.20
2022-08-25T07:37:58.220Z,31.50
2022-08-25T07:40:37.508Z,31.50
2022-08-25T07:43:10.304Z,30.80
2022-08-25T07:45:41.128Z,29.60
2022-08-25T07:48:18.374Z,30.10
2022-08-25T07:50:46.471Z,30.20
2022-08-25T07:53:15.058Z,30.90
2022-08-25T07:55:45.220Z,31.00
2022-08-25T07:58:15.297Z,30.20
2022-08-25T08:00:42.542Z,30.70
2022-08-25T08:03:12.871Z,30.50
2022-08-25T08:05:50.844Z,29.80
2022-08-25T08:08:19.022Z,30.20
2022-08-25T08:11:04.240Z,31.80
2022-08-25T08:13:36.835Z,33.00
2022-08-25T08:16:13.325Z,33.90
2022-08-25T08:18:42.891Z,33.60
2022-08-25T08:21:27.236Z,33.20
2022-08-25T08:23:58.939Z,31.50
2022-08-25T08:26:36.319Z,32.50
2022-08-25T08:29:08.878Z,32.10
2022-08-25T08:31:37.098Z,33.00
2022-08-25T08:34:04.274Z,31.90
2022-08-25T08:36:31.691Z,30.90
2022-08-25T08:38:58.985Z,32.20
2022-08-25T08:44:44.194Z,32.30
2022-08-25T08:47:19.723Z,31.90
2022-08-25T08:50:19.992Z,31.50
2022-08-25T08:52:58.971Z,31.30
2022-08-25T08:55:44.314Z,32.00
2022-08-25T08:58:18.448Z,31.50
2022-08-25T09:00:52.584Z,29.50
2022-08-25T09:03:27.670Z,30.00
2022-08-25T09:05:59.155Z,30.90
2022-08-25T09:08:27.108Z,31.20
2022-08-25T09:11:02.596Z,30.50
2022-08-25T09:13:48.654Z,30.70
2022-08-25T09:16:40.652Z,31.10
2022-08-25T09:19:37.448Z,31.00
2022-08-25T09:22:35.053Z,32.20
2022-08-25T09:25:39.601Z,32.10
2022-08-25T09:28:20.583Z,31.90
2022-08-25T09:31:01.048Z,31.10
2022-08-25T09:33:31.251Z,31.20
2022-08-25T09:36:04.632Z,31.20
2022-08-25T09:38:33.769Z,30.50
2022-08-25T09:41:01.246Z,30.50
2022-08-25T09:43:44.805Z,31.90
2022-08-25T09:46:16.496Z,32.00
2022-08-25T09:48:56.013Z,32.80
2022-08-25T09:51:42.436Z,33.00
2022-08-25T09:54:13.181Z,31.20
2022-08-25T09:56:54.036Z,30.90
2022-08-25T09:59:34.983Z,31.10
2022-08-25T10:02:25.869Z,31.40
2022-08-25T10:04:53.456Z,31.60
2022-08-25T10:07:39.778Z,31.60
2022-08-25T10:10:21.905Z,32.60
2022-08-25T10:12:51.572Z,32.60
2022-08-25T10:15:32.848Z,32.20
2022-08-25T10:18:28.092Z,32.20
2022-08-25T10:21:17.455Z,32.60
2022-08-25T10:23:51.575Z,31.00
2022-08-25T10:26:58.152Z,31.00
2022-08-25T10:29:45.893Z,30.00
2022-08-25T10:32:46.499Z,29.80
2022-08-25T10:35:18.616Z,30.30
2022-08-25T10:37:57.364Z,30.60
2022-08-25T10:40:54.100Z,30.70
2022-08-25T10:43:38.305Z,31.30
2022-08-25T10:46:26.626Z,31.70
2022-08-25T10:49:04.128Z,31.10
2022-08-25T10:51:55.559Z,31.00
2022-08-25T10:54:49.706Z,30.90
2022-08-25T10:57:33.112Z,31.90
2022-08-25T11:00:14.480Z,31.80
2022-08-25T11:02:52.152Z,32.00
2022-08-25T11:05:36.926Z,31.70
2022-08-25T11:08:26.213Z,31.60
2022-08-25T11:11:05.567Z,31.00
2022-08-25T11:13:44.089Z,31.70
2022-08-25T11:16:25.512Z,32.00
2022-08-25T11:18:59.375Z,31.80
2022-08-25T11:21:40.620Z,32.30
2022-08-25T11:24:18.255Z,32.30
2022-08-25T11:26:51.721Z,31.60
2022-08-25T11:29:22.246Z,31.30
2022-08-25T11:31:53.800Z,31.10
2022-08-25T11:34:22.709Z,31.30
2022-08-25T11:37:07.794Z,31.60
2022-08-25T11:40:18.917Z,30.80
2022-08-25T11:43:14.245Z,30.90
2022-08-25T11:45:54.348Z,31.50
2022-08-25T11:48:52.203Z,31.30
2022-08-25T11:51:39.822Z,32.10
2022-08-25T11:54:34.462Z,31.60
2022-08-25T11:57:06.520Z,31.30
2022-08-25T11:59:53.076Z,31.00
2022-08-25T12:02:43.142Z,31.40
2022-08-25T12:05:19.043Z,31.30
2022-08-25T12:08:11.298Z,29.70
2022-08-25T12:11:00.527Z,30.10
2022-08-25T12:13:48.232Z,31.20
2022-08-25T12:17:00.466Z,31.30
2022-08-25T12:19:36.742Z,32.00
2022-08-25T12:22:04.943Z,31.80
2022-08-25T12:24:48.807Z,31.40
2022-08-25T12:27:33.763Z,30.80
2022-08-25T12:30:22.051Z,31.30
2022-08-25T12:33:24.194Z,31.30
2022-08-25T12:36:03.702Z,31.20
2022-08-25T12:38:42.505Z,31.50
2022-08-25T12:41:14.626Z,30.90
2022-08-25T12:43:51.850Z,31.40
2022-08-25T12:46:21.874Z,30.60
2022-08-25T12:49:02.412Z,30.30
2022-08-25T12:52:06.839Z,30.20
2022-08-25T12:54:48.101Z,31.20
2022-08-25T12:57:41.045Z,32.40
2022-08-25T13:00:16.745Z,31.40
2022-08-25T13:03:24.916Z,31.80
2022-08-25T13:06:11.817Z,32.20
2022-08-25T13:09:15.970Z,33.10
2022-08-25T13:12:05.579Z,34.10
2022-08-25T13:14:39.694Z,33.80
2022-08-25T13:17:09.554Z,33.60
2022-08-25T13:19:37.577Z,33.30
2022-08-25T13:22:16.217Z,32.60
2022-08-25T13:27:28.297Z,32.30
2022-08-25T13:29:58.319Z,32.80
2022-08-25T13:32:32.564Z,32.60
2022-08-25T13:35:24.672Z,33.00
2022-08-25T13:37:53.948Z,32.30
2022-08-25T13:40:26.717Z,31.80
2022-08-25T13:43:02.659Z,30.70
2022-08-25T13:45:40.248Z,31.10
2022-08-25T13:48:22.665Z,30.80
2022-08-25T13:50:52.005Z,31.90
2022-08-25T13:53:30.457Z,32.10
2022-08-25T13:56:03.075Z,32.50
2022-08-25T13:58:45.094Z,32.40
2022-08-25T14:01:49.131Z,32.40
2022-08-25T14:04:33.749Z,31.60
2022-08-25T14:07:22.430Z,30.90
2022-08-25T14:09:54.668Z,31.50
2022-08-25T14:12:33.156Z,31.80
2022-08-25T14:15:06.905Z,30.60
2022-08-25T14:17:39.173Z,30.00
2022-08-25T14:20:22.057Z,30.30
2022-08-25T14:22:54.396Z,30.60
2022-08-25T14:25:22.006Z,31.10
2022-08-25T14:28:10.885Z,30.50
2022-08-25T14:30:46.114Z,30.10
2022-08-25T14:33:14.944Z,30.80
2022-08-25T14:35:45.483Z,31.50
2022-08-25T14:38:14.908Z,31.60
2022-08-25T14:40:42.197Z,31.40
2022-08-25T14:43:09.952Z,30.90
2022-08-25T14:45:40.399Z,31.00
2022-08-25T14:48:10.876Z,31.00
2022-08-25T14:50:41.236Z,31.30
2022-08-25T14:53:10.361Z,30.90
2022-08-25T14:55:37.836Z,31.00
2022-08-25T14:58:06.822Z,31.00
2022-08-25T15:00:42.117Z,30.20
2022-08-25T15:03:15.070Z,30.20
2022-08-25T15:05:42.637Z,29.70
2022-08-25T15:08:33.063Z,29.70
2022-08-25T15:11:00.629Z,29.70
2022-08-25T15:13:27.572Z,29.30
2022-08-25T15:15:55.324Z,28.70
2022-08-25T15:18:25.839Z,29.00
2022-08-25T15:20:52.804Z,29.70
2022-08-25T15:23:19.738Z,29.70
2022-08-25T15:25:49.042Z,29.50
2022-08-25T15:28:21.848Z,29.20
2022-08-25T15:30:49.943Z,29.30
2022-08-25T15:33:17.438Z,29.30
2022-08-25T15:35:45.558Z,29.30
2022-08-25T15:38:12.716Z,29.00
2022-08-25T15:40:39.895Z,29.00
2022-08-25T15:43:06.861Z,28.90
2022-08-25T15:45:36.273Z,28.40
2022-08-25T15:48:06.713Z,28.10
2022-08-25T15:50:36.530Z,27.90
2022-08-25T15:53:03.765Z,28.10
2022-08-25T15:55:39.006Z,28.30
2022-08-25T15:58:07.125Z,28.50
2022-08-25T16:00:36.239Z,28.50
2022-08-25T16:03:05.213Z,28.80
2022-08-25T16:05:39.916Z,28.90
2022-08-25T16:08:19.594Z,28.70
2022-08-25T16:10:47.493Z,28.50
2022-08-25T16:13:14.666Z,28.50
2022-08-25T16:15:47.395Z,28.50
2022-08-25T16:18:19.999Z,28.70
2022-08-25T16:20:48.411Z,29.00
2022-08-25T16:23:18.178Z,29.00
2022-08-25T16:25:47.285Z,29.00
2022-08-25T16:28:15.960Z,28.60
2022-08-25T16:30:52.677Z,28.40
2022-08-25T16:33:19.946Z,28.20
2022-08-25T16:35:47.730Z,28.20
2022-08-25T16:38:16.136Z,28.20
2022-08-25T16:40:43.573Z,28.00
2022-08-25T16:43:10.943Z,27.70
2022-08-25T16:45:38.039Z,27.70
2022-08-25T16:48:06.314Z,27.60
2022-08-25T16:50:34.673Z,27.50
2022-08-25T16:53:23.809Z,27.50
2022-08-25T16:56:00.696Z,27.40
2022-08-25T16:58:27.733Z,27.40
2022-08-25T17:01:07.313Z,27.50
2022-08-25T17:03:37.288Z,27.50
2022-08-25T17:06:04.254Z,27.50
2022-08-25T17:08:33.298Z,27.50
2022-08-25T17:11:22.197Z,27.50
2022-08-25T17:13:52.213Z,27.30
2022-08-25T17:16:21.755Z,27.20
2022-08-25T17:18:49.085Z,27.00
2022-08-25T17:21:24.569Z,26.90
2022-08-25T17:23:55.471Z,26.70
2022-08-25T17:26:28.030Z,26.60
2022-08-25T17:29:00.633Z,26.50
2022-08-25T17:31:30.028Z,26.30
2022-08-25T17:33:58.299Z,26.20
2022-08-25T17:36:27.231Z,26.00
2022-08-25T17:38:55.185Z,25.90
2022-08-25T17:41:24.035Z,25.80
2022-08-25T17:43:50.894Z,25.80
2022-08-25T17:46:18.393Z,25.70
2022-08-25T17:48:45.989Z,25.70
2022-08-25T17:51:13.188Z,25.60
2022-08-25T17:53:43.771Z,25.50
2022-08-25T17:56:16.892Z,25.30
2022-08-25T17:58:47.226Z,25.10
2022-08-25T18:01:20.127Z,25.00
2022-08-25T18:03:49.819Z,24.80
2022-08-25T18:06:17.233Z,24.70
2022-08-25T18:08:52.240Z,24.60
2022-08-25T18:11:24.585Z,24.50
2022-08-25T18:13:53.683Z,24.50
2022-08-25T18:16:21.581Z,24.40
2022-08-25T18:18:49.132Z,24.30
2022-08-25T18:21:17.423Z,24.30
2022-08-25T18:23:45.222Z,24.10
2022-08-25T18:26:14.505Z,23.90
2022-08-25T18:28:43.989Z,23.80
2022-08-25T18:31:13.148Z,23.70
2022-08-25T18:33:44.598Z,23.60
2022-08-25T18:36:12.388Z,23.50
2022-08-25T18:38:59.008Z,23.50
2022-08-25T18:41:27.918Z,23.40
2022-08-25T18:43:55.021Z,23.40
2022-08-25T18:46:22.623Z,23.30
2022-08-25T18:48:52.929Z,23.20
2022-08-25T18:51:22.829Z,23.20
2022-08-25T18:53:54.480Z,23.20
2022-08-25T18:56:26.255Z,23.10
2022-08-25T18:58:53.520Z,22.90
2022-08-25T19:01:21.357Z,22.80
2022-08-25T19:03:48.792Z,22.70
2022-08-25T19:06:16.801Z,22.60
2022-08-25T19:08:45.213Z,22.60
2022-08-25T19:11:12.323Z,22.60
2022-08-25T19:13:40.311Z,22.60
2022-08-25T19:16:29.832Z,22.70
2022-08-25T19:18:56.844Z,22.80
2022-08-25T19:21:25.486Z,22.80
2022-08-25T19:23:53.102Z,22.70
2022-08-25T19:26:20.915Z,22.70
2022-08-25T19:28:49.396Z,22.70
2022-08-25T19:31:22.525Z,22.60
2022-08-25T19:33:52.541Z,22.60
2022-08-25T19:36:23.038Z,22.50
2022-08-25T19:38:52.432Z,22.30
2022-08-25T19:41:21.487Z,22.20
2022-08-25T19:43:56.437Z,22.10
2022-08-25T19:46:37.494Z,22.10
2022-08-25T19:49:17.792Z,22.00
2022-08-25T19:51:51.234Z,21.90
2022-08-25T19:54:26.481Z,21.90
2022-08-25T19:56:54.974Z,21.80
2022-08-25T19:59:34.167Z,21.90
2022-08-25T20:02:22.192Z,21.90
2022-08-25T20:04:52.258Z,21.80
2022-08-25T20:07:23.807Z,21.70
2022-08-25T20:09:52.550Z,21.60
2022-08-25T20:12:20.512Z,21.50
2022-08-25T20:14:48.777Z,21.40
2022-08-25T20:17:24.632Z,21.40
2022-08-25T20:19:59.166Z,21.30
2022-08-25T20:22:28.770Z,21.20
2022-08-25T20:24:59.478Z,21.20
2022-08-25T20:27:47.446Z,21.20
2022-08-25T20:30:22.327Z,21.20
2022-08-25T20:32:50.599Z,21.20
2022-08-25T20:35:18.674Z,21.20
2022-08-25T20:37:47.065Z,21.00
2022-08-25T20:40:16.833Z,21.00
2022-08-25T20:42:44.418Z,20.90
2022-08-25T20:45:13.942Z,20.70
2022-08-25T20:47:41.169Z,20.70
2022-08-25T20:50:09.457Z,20.60
2022-08-25T20:52:37.421Z,20.60
2022-08-25T20:55:10.073Z,20.60
2022-08-25T20:57:37.999Z,20.50
2022-08-25T21:00:08.079Z,20.50
2022-08-25T21:02:35.119Z,20.50
2022-08-25T21:05:03.074Z,20.50
2022-08-25T21:07:29.981Z,20.40
2022-08-25T21:09:57.703Z,20.40
2022-08-25T21:12:24.537Z,20.40
2022-08-25T21:14:51.901Z,20.30
2022-08-25T21:17:19.625Z,20.20
2022-08-25T21:22:19.007Z,19.90
2022-08-25T21:24:46.123Z,19.80
2022-08-25T21:27:13.263Z,19.60
2022-08-25T21:29:44.517Z,19.60
2022-08-25T21:32:23.425Z,19.60
2022-08-25T21:34:56.952Z,19.60
2022-08-25T21:37:26.388Z,19.60
2022-08-25T21:39:54.193Z,19.50
2022-08-25T21:42:23.133Z,19.40
2022-08-25T21:44:51.092Z,19.30
2022-08-25T21:47:21.381Z,19.10
2022-08-25T21:49:49.673Z,19.00
2022-08-25T21:52:17.220Z,18.90
2022-08-25T21:54:44.792Z,18.70
2022-08-25T21:57:11.769Z,18.70
2022-08-25T21:59:41.084Z,18.60
2022-08-25T22:02:10.118Z,18.60
2022-08-25T22:04:38.884Z,18.50
2022-08-25T22:07:06.668Z,18.50
2022-08-25T22:09:33.996Z,18.40
2022-08-25T22:12:00.934Z,18.30
2022-08-25T22:14:29.492Z,18.30
2022-08-25T22:16:56.449Z,18.20
2022-08-25T22:19:24.800Z,18.10
2022-08-25T22:21:55.582Z,18.00
2022-08-25T22:24:23.207Z,18.00
2022-08-25T22:26:56.372Z,17.90
2022-08-25T22:29:25.278Z,17.90
2022-08-25T22:32:00.975Z,17.90
2022-08-25T22:34:33.044Z,17.80
2022-08-25T22:37:04.337Z,17.80
2022-08-25T22:39:34.236Z,17.80
2022-08-25T22:42:02.065Z,17.70
2022-08-25T22:44:29.176Z,17.70
2022-08-25T22:46:56.180Z,17.70
2022-08-25T22:49:23.856Z,17.60
2022-08-25T22:51:50.882Z,17.70
2022-08-25T22:54:18.131Z,17.60
2022-08-25T22:56:45.014Z,17.70
2022-08-25T22:59:13.716Z,17.60
2022-08-25T23:01:42.619Z,17.50
2022-08-25T23:04:10.730Z,17.40
2022-08-25T23:06:37.959Z,17.40
2022-08-25T23:09:07.114Z,17.30
2022-08-25T23:11:35.690Z,17.30
2022-08-25T23:14:09.466Z,17.30
2022-08-25T23:16:37.501Z,17.30
2022-08-25T23:19:04.593Z,17.20
2022-08-25T23:21:51.246Z,17.20
2022-08-25T23:24:26.865Z,17.10
2022-08-25T23:27:01.927Z,17.40
2022-08-25T23:29:29.529Z,17.50
2022-08-25T23:31:57.218Z,17.60
2022-08-25T23:34:25.052Z,17.60
2022-08-25T23:36:52.173Z,17.50
2022-08-25T23:39:19.181Z,17.50
2022-08-25T23:41:49.461Z,17.40
2022-08-25T23:44:17.597Z,17.30
2022-08-25T23:46:47.073Z,17.20
2022-08-25T23:49:18.145Z,17.10
2022-08-25T23:51:46.378Z,17.00
2022-08-25T23:54:14.798Z,16.90
2022-08-25T23:56:51.406Z,16.80
2022-08-25T23:59:24.489Z,16.80
